Belden, North Dakota
Current Conditions -  °F | °C
As of 7:55 AM on Sunday 25 Jan 2015 (Local Time) from K08D Reporting Station
Overcast Overcast  
Wind Chill: 21°   Ceiling: 600
Heat Index: 28°   Visibility: 10mi
Dew Point: 28°   Wind: 7mph
Humidity: 100%   Direction: 330°NNW
Pressure: 29.95"   Gusts: NA
Location:  48.3212°N, 102.393°W
Report Text: K08D 251355Z AUTO 33006KT 10SM OVC006 M02/M02 A2995 RMK AO2
Loading
Personal Weather Stations






























Interactive Weather Map New forecast layout! Learn more

10-Day Weather Forecast

Advertisements
Track Severe Weather on mobile